Time;durP1;ratioP1;P1;durP2;ratioP2;P2;SDS_P1;SDS_P2;PMS_P1;PMS_P2;Temp;Humidity;BMP_temperature;BMP_pressure;BME280_temperature;BME280_humidity;BME280_pressure;Samples;Min_cycle;Max_cycle;Signal;HPM_P1;HPM_P2
2021/12/01 00:00:34;;;;;;;0.70;0.68;;;7.90;68.80;;;;;;5037313;28;20048;-70
2021/12/01 00:03:00;;;;;;;1.90;0.90;;;8.00;68.60;;;;;;5020658;28;20033;-73
2021/12/01 00:05:28;;;;;;;2.08;0.60;;;8.00;68.50;;;;;;5054894;28;20029;-75
2021/12/01 00:07:55;;;;;;;1.00;0.90;;;8.10;68.40;;;;;;5054279;28;20482;-76
2021/12/01 00:10:22;;;;;;;0.65;0.60;;;8.10;68.60;;;;;;5054335;28;20129;-70
2021/12/01 00:12:48;;;;;;;1.83;0.90;;;8.10;68.50;;;;;;5055281;28;20458;-73
2021/12/01 00:15:14;;;;;;;1.60;1.02;;;8.10;68.50;;;;;;5036768;28;20044;-71
2021/12/01 00:17:40;;;;;;;0.70;0.70;;;8.10;69.00;;;;;;5036651;28;20120;-63
2021/12/01 00:20:09;;;;;;;0.93;0.75;;;8.10;69.10;;;;;;5036753;28;20418;-72
2021/12/01 00:22:35;;;;;;;0.50;0.50;;;8.20;68.60;;;;;;5037888;28;20049;-73
2021/12/01 00:25:01;;;;;;;1.13;0.88;;;8.20;68.80;;;;;;5053941;28;20045;-70
2021/12/01 00:27:27;;;;;;;1.42;0.90;;;8.20;69.10;;;;;;5053732;28;20025;-75
2021/12/01 00:29:52;;;;;;;1.33;0.60;;;8.20;69.70;;;;;;5054893;28;20343;-69
2021/12/01 00:32:18;;;;;;;0.95;0.60;;;8.20;69.40;;;;;;5036206;28;20025;-68
2021/12/01 00:34:44;;;;;;;1.13;0.70;;;8.30;69.20;;;;;;5053836;28;20033;-71
2021/12/01 00:37:10;;;;;;;1.08;0.65;;;8.30;69.50;;;;;;5035294;28;20021;-67
2021/12/01 00:39:36;;;;;;;1.65;1.02;;;8.30;69.30;;;;;;5052995;28;20382;-74
2021/12/01 00:42:02;;;;;;;1.40;0.75;;;8.30;69.30;;;;;;5053037;28;20078;-74
2021/12/01 00:44:29;;;;;;;1.02;0.70;;;8.30;69.50;;;;;;5052345;28;20028;-66
2021/12/01 00:47:05;;;;;;;0.85;0.70;;;8.30;69.50;;;;;;5053470;28;20029;-68
2021/12/01 00:49:33;;;;;;;1.30;0.90;;;8.40;69.20;;;;;;5052336;28;20037;-66
2021/12/01 00:51:59;;;;;;;0.80;0.60;;;8.40;70.10;;;;;;5052288;28;20029;-68
2021/12/01 00:54:32;;;;;;;1.58;0.70;;;8.40;70.10;;;;;;5052037;28;20084;-69
2021/12/01 00:56:58;;;;;;;0.82;0.70;;;8.50;70.00;;;;;;5035005;28;20025;-69
2021/12/01 00:59:43;;;;;;;1.42;0.63;;;8.40;70.50;;;;;;5051948;28;20035;-65
2021/12/01 01:02:09;;;;;;;0.98;0.60;;;8.50;70.00;;;;;;5034840;28;20040;-67
2021/12/01 01:04:35;;;;;;;0.65;0.55;;;8.50;70.30;;;;;;5051904;28;20025;-70
2021/12/01 01:07:01;;;;;;;0.80;0.70;;;8.50;70.00;;;;;;5052229;28;20025;-69
2021/12/01 01:09:31;;;;;;;1.02;0.80;;;8.50;69.90;;;;;;5051907;28;20025;-72
2021/12/01 01:17:52;;;;;;;0.85;0.60;;;8.60;70.20;;;;;;5051896;28;20376;-74
2021/12/01 01:20:16;;;;;;;1.95;1.00;;;8.60;70.20;;;;;;5050996;28;20041;-77
2021/12/01 01:22:42;;;;;;;1.50;1.00;;;8.50;71.20;;;;;;5051961;28;20032;-71
2021/12/01 01:25:09;;;;;;;4.85;0.98;;;8.60;70.40;;;;;;5051700;28;20048;-69
2021/12/01 01:27:35;;;;;;;0.85;0.70;;;8.60;70.30;;;;;;5071932;28;20028;-66
2021/12/01 01:30:04;;;;;;;0.75;0.50;;;8.70;70.70;;;;;;5071489;28;20085;-75
2021/12/01 01:32:33;;;;;;;0.50;0.50;;;8.70;70.40;;;;;;5070490;28;20024;-70
2021/12/01 01:34:59;;;;;;;0.75;0.60;;;8.70;70.10;;;;;;5070802;28;20031;-64
2021/12/01 01:37:26;;;;;;;1.15;0.70;;;8.70;70.20;;;;;;5069797;28;20071;-65
2021/12/01 01:39:51;;;;;;;0.50;0.50;;;8.70;70.60;;;;;;5071987;28;20028;-61
2021/12/01 01:42:17;;;;;;;0.93;0.60;;;8.80;70.50;;;;;;5071306;28;20388;-61
2021/12/01 01:44:43;;;;;;;0.60;0.60;;;8.80;70.70;;;;;;5071677;28;20502;-60
2021/12/01 01:47:11;;;;;;;1.38;0.60;;;8.80;70.50;;;;;;5071188;28;20060;-61
2021/12/01 01:52:26;;;;;;;1.15;0.77;;;8.90;70.30;;;;;;5060110;28;20282;-60
2021/12/01 01:54:52;;;;;;;0.68;0.60;;;8.90;70.90;;;;;;5070537;28;20454;-61
2021/12/01 01:57:19;;;;;;;0.75;0.65;;;8.80;70.90;;;;;;5071158;28;20308;-60
2021/12/01 01:59:45;;;;;;;0.70;0.50;;;8.90;70.80;;;;;;5071414;28;20481;-60
2021/12/01 02:02:11;;;;;;;0.68;0.50;;;8.90;70.70;;;;;;5069961;28;20097;-64
2021/12/01 02:04:36;;;;;;;0.63;0.40;;;8.90;70.90;;;;;;5071141;28;20025;-59
2021/12/01 02:07:03;;;;;;;0.57;0.55;;;8.90;71.00;;;;;;5070446;28;20437;-60
2021/12/01 02:09:30;;;;;;;0.60;0.38;;;8.90;71.60;;;;;;5070527;28;20055;-61
2021/12/01 02:11:59;;;;;;;1.15;0.50;;;9.00;71.70;;;;;;5070977;28;20020;-61
2021/12/01 02:14:26;;;;;;;0.40;0.40;;;8.90;72.10;;;;;;5070297;28;20021;-58
2021/12/01 02:16:53;;;;;;;0.77;0.70;;;9.00;71.90;;;;;;5072053;28;20033;-59
2021/12/01 02:19:19;;;;;;;0.55;0.40;;;9.00;71.60;;;;;;5069315;28;20024;-58
2021/12/01 02:21:45;;;;;;;0.50;0.50;;;9.00;72.10;;;;;;5071432;28;20043;-61
2021/12/01 02:24:13;;;;;;;0.80;0.50;;;9.00;72.20;;;;;;5068428;28;20519;-62
2021/12/01 02:26:46;;;;;;;1.27;0.40;;;9.00;72.40;;;;;;5051354;28;20103;-58
2021/12/01 02:29:16;;;;;;;0.50;0.47;;;8.90;73.60;;;;;;5051065;28;20060;-62
2021/12/01 02:31:43;;;;;;;1.08;0.65;;;8.90;73.00;;;;;;5051258;28;20079;-58
2021/12/01 02:34:17;;;;;;;0.43;0.40;;;8.90;73.50;;;;;;5051434;28;20075;-60
2021/12/01 02:36:46;;;;;;;0.52;0.40;;;8.80;73.50;;;;;;5051607;28;20105;-61
2021/12/01 02:39:15;;;;;;;0.50;0.50;;;8.90;73.10;;;;;;5051043;28;20400;-55
2021/12/01 02:41:43;;;;;;;1.15;0.50;;;8.90;72.60;;;;;;5033788;28;20032;-61
2021/12/01 02:44:11;;;;;;;0.55;0.43;;;8.90;73.30;;;;;;5051912;28;20078;-60
2021/12/01 02:46:37;;;;;;;0.98;0.40;;;8.90;72.60;;;;;;5051001;28;20074;-57
2021/12/01 02:49:03;;;;;;;0.82;0.70;;;8.90;72.50;;;;;;5051306;28;20185;-55
2021/12/01 02:51:32;;;;;;;0.40;0.40;;;8.90;72.60;;;;;;5050717;28;20043;-54
2021/12/01 02:53:59;;;;;;;0.47;0.40;;;9.00;72.60;;;;;;5050498;28;20025;-62
2021/12/01 02:56:25;;;;;;;0.60;0.50;;;9.00;72.30;;;;;;5050823;28;20029;-61
2021/12/01 02:58:52;;;;;;;0.52;0.50;;;9.00;72.10;;;;;;5053566;28;20029;-62
2021/12/01 03:01:23;;;;;;;1.58;0.70;;;9.00;72.10;;;;;;5053786;28;20043;-58
2021/12/01 03:03:50;;;;;;;0.50;0.50;;;9.00;72.50;;;;;;5054920;28;20033;-61
2021/12/01 03:06:19;;;;;;;0.65;0.50;;;9.00;71.90;;;;;;5036367;28;20057;-60
2021/12/01 03:08:46;;;;;;;1.38;0.60;;;9.00;72.10;;;;;;5054689;28;20048;-58
2021/12/01 03:11:13;;;;;;;0.50;0.50;;;9.00;71.90;;;;;;5054105;28;20033;-62
2021/12/01 03:13:39;;;;;;;0.50;0.50;;;9.00;72.00;;;;;;5036834;28;20124;-60
2021/12/01 03:16:06;;;;;;;1.42;0.63;;;9.00;72.00;;;;;;5054327;28;20096;-59
2021/12/01 03:18:33;;;;;;;0.38;0.38;;;8.90;72.10;;;;;;5053751;28;20389;-63
2021/12/01 03:21:00;;;;;;;7.93;3.40;;;9.00;71.90;;;;;;5054332;28;20044;-61
2021/12/01 03:23:27;;;;;;;0.75;0.63;;;9.00;71.70;;;;;;5053748;28;20076;-60
2021/12/01 03:25:54;;;;;;;1.75;0.50;;;8.90;71.90;;;;;;5054167;28;20477;-62
2021/12/01 03:28:21;;;;;;;0.70;0.60;;;9.00;71.90;;;;;;5053692;28;20025;-61
2021/12/01 03:30:47;;;;;;;0.60;0.50;;;8.90;71.90;;;;;;5054292;28;20444;-61
2021/12/01 03:33:16;;;;;;;0.75;0.60;;;8.90;72.10;;;;;;5053578;28;20383;-60
2021/12/01 03:35:45;;;;;;;0.50;0.40;;;8.90;72.30;;;;;;5054016;28;20158;-59
2021/12/01 03:38:12;;;;;;;0.82;0.50;;;8.80;72.40;;;;;;5054329;28;20028;-61
2021/12/01 03:40:37;;;;;;;0.50;0.50;;;8.80;72.40;;;;;;5054061;28;20039;-55
2021/12/01 03:43:04;;;;;;;0.95;0.55;;;8.90;72.30;;;;;;5053514;28;20454;-60
2021/12/01 03:45:30;;;;;;;2.20;0.60;;;8.80;72.30;;;;;;5053119;28;20056;-57
2021/12/01 03:47:56;;;;;;;0.75;0.55;;;8.80;72.20;;;;;;5036124;28;20165;-60
2021/12/01 03:50:22;;;;;;;3.22;1.50;;;8.90;72.00;;;;;;5053338;28;20068;-56
2021/12/01 03:52:48;;;;;;;0.90;0.80;;;9.00;71.70;;;;;;5054218;28;20044;-59
2021/12/01 03:55:14;;;;;;;0.63;0.40;;;9.00;71.50;;;;;;5035399;28;20025;-59
2021/12/01 03:57:41;;;;;;;0.60;0.60;;;9.10;71.40;;;;;;5053414;28;20025;-59
2021/12/01 04:00:10;;;;;;;0.60;0.57;;;9.10;71.40;;;;;;5053413;28;20040;-55
2021/12/01 04:02:37;;;;;;;1.60;0.70;;;9.00;71.80;;;;;;5053805;28;20032;-59
2021/12/01 04:05:03;;;;;;;0.73;0.68;;;9.10;71.30;;;;;;5035789;28;20025;-59
2021/12/01 04:07:29;;;;;;;0.80;0.60;;;9.10;71.10;;;;;;5053304;28;20021;-57
2021/12/01 04:09:55;;;;;;;0.93;0.65;;;9.10;71.10;;;;;;5034714;28;20407;-55
2021/12/01 04:12:22;;;;;;;1.38;0.65;;;9.10;71.20;;;;;;5053407;28;20040;-57
2021/12/01 04:14:48;;;;;;;0.88;0.70;;;9.10;71.20;;;;;;5053325;28;20033;-62
2021/12/01 04:17:14;;;;;;;1.75;0.77;;;9.10;71.00;;;;;;5053097;28;20104;-61
2021/12/01 04:19:39;;;;;;;0.90;0.75;;;9.10;71.10;;;;;;5052554;28;20032;-60
2021/12/01 04:22:05;;;;;;;0.95;0.85;;;9.10;71.20;;;;;;5053467;28;20045;-59
2021/12/01 04:24:31;;;;;;;0.98;0.70;;;9.20;71.40;;;;;;5042266;28;20125;-59
2021/12/01 04:26:57;;;;;;;0.73;0.60;;;9.20;71.30;;;;;;5073419;28;20031;-58
2021/12/01 04:29:24;;;;;;;0.77;0.70;;;9.10;71.30;;;;;;5073000;28;20033;-59
2021/12/01 04:31:50;;;;;;;2.55;0.75;;;9.20;71.40;;;;;;5072721;28;20074;-58
2021/12/01 04:34:16;;;;;;;2.17;1.00;;;9.20;71.20;;;;;;5072102;28;20028;-60
2021/12/01 04:36:44;;;;;;;1.20;0.95;;;9.30;71.20;;;;;;5072997;28;20435;-58
2021/12/01 04:39:15;;;;;;;2.53;0.70;;;9.30;71.20;;;;;;5072919;28;20466;-60
2021/12/01 04:41:51;;;;;;;1.20;0.80;;;9.30;70.90;;;;;;5072579;28;20032;-60
2021/12/01 04:44:20;;;;;;;0.85;0.63;;;9.30;70.80;;;;;;5071319;28;20068;-58
2021/12/01 04:46:47;;;;;;;1.90;1.20;;;9.40;70.80;;;;;;5073033;28;20457;-56
2021/12/01 04:49:16;;;;;;;0.90;0.68;;;9.30;70.70;;;;;;5072567;28;20099;-61
2021/12/01 04:51:45;;;;;;;1.77;0.90;;;9.30;70.80;;;;;;5072376;28;20586;-61
2021/12/01 04:54:11;;;;;;;1.17;0.75;;;9.40;70.90;;;;;;5071380;28;20334;-60
2021/12/01 04:56:37;;;;;;;1.30;1.00;;;9.30;71.00;;;;;;5070548;28;20029;-52
2021/12/01 04:59:04;;;;;;;1.52;0.82;;;9.40;71.20;;;;;;5070765;28;20118;-54
2021/12/01 05:01:33;;;;;;;0.75;0.70;;;9.30;71.40;;;;;;5071935;28;20123;-54
2021/12/01 05:03:59;;;;;;;1.40;0.90;;;9.30;71.80;;;;;;5071505;28;20020;-59
2021/12/01 05:06:25;;;;;;;1.20;0.70;;;9.30;72.00;;;;;;5071547;28;20111;-59
2021/12/01 05:08:50;;;;;;;5.30;2.33;;;9.30;72.30;;;;;;5072210;28;20462;-54
2021/12/01 05:11:16;;;;;;;1.10;0.75;;;9.30;72.30;;;;;;5071536;28;20374;-57
2021/12/01 05:13:42;;;;;;;1.20;0.90;;;9.30;72.50;;;;;;5072359;28;20130;-60
2021/12/01 05:16:08;;;;;;;0.80;0.77;;;9.30;73.20;;;;;;5072222;28;20062;-56
2021/12/01 05:18:34;;;;;;;2.42;0.93;;;9.30;74.10;;;;;;5053277;28;20649;-58
2021/12/01 05:21:00;;;;;;;1.15;0.90;;;9.20;74.80;;;;;;5072123;28;20028;-55
2021/12/01 05:23:26;;;;;;;1.90;1.13;;;9.20;74.90;;;;;;5070922;28;20118;-58
2021/12/01 05:25:52;;;;;;;1.40;0.93;;;9.20;75.10;;;;;;5057196;28;20480;-57
2021/12/01 05:28:17;;;;;;;1.13;1.00;;;9.20;75.50;;;;;;5051406;28;20103;-57
2021/12/01 05:30:45;;;;;;;0.88;0.80;;;9.20;75.40;;;;;;5051391;28;20028;-56
2021/12/01 05:33:12;;;;;;;1.15;0.80;;;9.20;75.20;;;;;;5051820;28;20059;-59
2021/12/01 05:35:38;;;;;;;1.35;0.80;;;9.20;75.10;;;;;;5051451;28;20056;-56
2021/12/01 05:38:04;;;;;;;0.85;0.73;;;9.20;75.10;;;;;;5052225;28;20036;-55
2021/12/01 05:40:32;;;;;;;1.45;0.90;;;9.20;75.10;;;;;;5050913;28;20024;-54
2021/12/01 05:42:58;;;;;;;0.93;0.75;;;9.30;75.00;;;;;;5051813;28;20115;-60
2021/12/01 05:45:23;;;;;;;1.02;0.80;;;9.30;75.00;;;;;;5051411;28;20021;-60
2021/12/01 05:47:50;;;;;;;1.27;0.90;;;9.30;74.80;;;;;;5051828;28;20032;-63
2021/12/01 05:50:16;;;;;;;1.05;0.80;;;9.40;74.80;;;;;;5051124;28;20036;-59
2021/12/01 05:52:42;;;;;;;1.48;0.90;;;9.40;74.60;;;;;;5051288;28;20519;-60
2021/12/01 05:55:08;;;;;;;1.55;1.00;;;9.40;74.60;;;;;;5051090;28;20024;-60
2021/12/01 05:57:34;;;;;;;1.48;0.77;;;9.40;74.70;;;;;;5050500;28;20067;-61
2021/12/01 06:00:00;;;;;;;2.17;0.80;;;9.40;74.50;;;;;;5033300;28;20048;-63
2021/12/01 06:02:27;;;;;;;2.65;0.98;;;9.50;74.50;;;;;;5050409;28;20445;-58
2021/12/01 06:04:53;;;;;;;1.80;1.05;;;9.50;74.50;;;;;;5051451;28;20029;-59
2021/12/01 06:07:19;;;;;;;1.67;1.10;;;9.50;74.50;;;;;;5050378;28;20170;-60
2021/12/01 06:09:45;;;;;;;1.33;1.00;;;9.60;74.20;;;;;;5033707;28;20039;-59
2021/12/01 06:12:12;;;;;;;1.63;1.08;;;9.60;74.00;;;;;;5051153;28;20033;-61
2021/12/01 06:14:40;;;;;;;1.20;0.65;;;9.60;74.10;;;;;;5019591;28;20545;-65
2021/12/01 06:17:08;;;;;;;3.50;1.10;;;9.70;74.10;;;;;;5048990;28;20473;-60
2021/12/01 06:19:34;;;;;;;2.95;1.17;;;9.70;74.00;;;;;;5052104;28;20028;-59
2021/12/01 06:22:00;;;;;;;2.55;0.93;;;9.70;73.80;;;;;;5032791;28;20028;-61
2021/12/01 06:24:26;;;;;;;3.22;1.55;;;9.70;73.80;;;;;;5050381;28;20039;-64
2021/12/01 06:26:52;;;;;;;1.83;1.17;;;9.70;73.60;;;;;;5032490;28;20029;-60
2021/12/01 06:29:18;;;;;;;3.15;1.20;;;9.80;73.70;;;;;;5033003;28;20065;-58
2021/12/01 06:31:44;;;;;;;1.83;1.00;;;9.70;73.60;;;;;;5050803;28;20494;-60
2021/12/01 06:34:09;;;;;;;1.50;0.85;;;9.80;73.60;;;;;;5054073;28;20390;-62
2021/12/01 06:36:35;;;;;;;1.67;1.00;;;9.80;73.50;;;;;;5053732;28;20017;-59
2021/12/01 06:39:02;;;;;;;3.40;0.85;;;9.80;73.50;;;;;;5054329;28;20407;-61
2021/12/01 06:41:28;;;;;;;1.23;0.85;;;9.70;73.60;;;;;;5053949;28;20123;-60
2021/12/01 06:43:54;;;;;;;1.38;1.00;;;9.70;73.80;;;;;;5054943;28;20700;-60
2021/12/01 06:46:22;;;;;;;3.92;1.50;;;9.70;73.80;;;;;;5053089;28;20359;-61
2021/12/01 06:48:48;;;;;;;2.03;1.10;;;9.70;73.80;;;;;;5054033;28;20458;-59
2021/12/01 06:51:14;;;;;;;3.40;1.20;;;9.70;73.80;;;;;;5036556;28;20044;-61
2021/12/01 06:53:40;;;;;;;4.30;1.08;;;9.80;73.60;;;;;;5052859;28;20040;-58
2021/12/01 06:56:06;;;;;;;2.97;1.33;;;9.70;73.20;;;;;;5054475;28;20029;-59
2021/12/01 06:58:32;;;;;;;4.57;1.25;;;9.80;73.10;;;;;;5053476;28;20032;-58
2021/12/01 07:00:58;;;;;;;4.18;1.10;;;9.80;72.80;;;;;;5053672;28;20032;-50
2021/12/01 07:03:23;;;;;;;2.47;1.00;;;9.80;72.60;;;;;;5053060;28;20025;-57
2021/12/01 07:05:49;;;;;;;4.80;1.15;;;9.80;72.30;;;;;;5053321;28;20033;-58
2021/12/01 07:08:15;;;;;;;1.92;1.20;;;9.90;72.10;;;;;;5053679;28;20052;-67
2021/12/01 07:10:41;;;;;;;2.05;1.10;;;9.90;72.10;;;;;;5053491;28;20445;-64
2021/12/01 07:13:07;;;;;;;2.67;1.63;;;9.90;71.90;;;;;;5052566;28;20113;-61
2021/12/01 07:15:33;;;;;;;6.10;1.30;;;10.00;71.70;;;;;;5035419;28;20090;-61
2021/12/01 07:17:59;;;;;;;1.40;1.00;;;10.00;71.50;;;;;;5054308;28;20021;-57
2021/12/01 07:20:25;;;;;;;22.13;2.00;;;10.00;71.30;;;;;;5053145;28;20021;-60
2021/12/01 07:22:51;;;;;;;2.22;1.10;;;10.10;71.20;;;;;;5053998;28;20028;-61
2021/12/01 07:25:17;;;;;;;1.30;1.00;;;10.10;71.10;;;;;;5051272;28;20132;-65
2021/12/01 07:27:43;;;;;;;2.85;1.30;;;10.10;70.90;;;;;;5072624;28;20021;-57
2021/12/01 07:30:09;;;;;;;1.45;0.90;;;10.20;70.60;;;;;;5072571;28;20069;-62
2021/12/01 07:32:38;;;;;;;2.78;1.20;;;10.20;70.90;;;;;;5073163;28;20049;-61
2021/12/01 07:35:05;;;;;;;2.25;1.10;;;10.10;74.80;;;;;;5074804;28;20040;-57
2021/12/01 07:37:31;;;;;;;2.55;1.00;;;10.00;77.30;;;;;;5072511;28;20035;-59
2021/12/01 07:39:57;;;;;;;3.50;1.13;;;9.90;77.00;;;;;;5072120;28;20024;-63
2021/12/01 07:42:22;;;;;;;3.53;0.90;;;9.80;77.00;;;;;;5072584;28;20032;-58
2021/12/01 07:44:48;;;;;;;8.57;1.13;;;9.80;76.20;;;;;;5072998;28;20109;-61
2021/12/01 07:47:14;;;;;;;3.47;1.83;;;9.90;75.00;;;;;;5072210;28;20105;-60
2021/12/01 07:49:40;;;;;;;2.08;0.90;;;9.90;74.60;;;;;;5072913;28;20108;-63
2021/12/01 07:52:08;;;;;;;4.05;1.45;;;10.00;74.10;;;;;;5069342;28;20060;-63
2021/12/01 07:54:34;;;;;;;2.47;1.20;;;10.10;73.60;;;;;;5071484;28;20035;-62
2021/12/01 07:57:01;;;;;;;3.85;1.73;;;10.20;73.40;;;;;;5071821;28;20028;-63
2021/12/01 07:59:27;;;;;;;3.75;1.23;;;10.20;73.00;;;;;;5072425;28;20028;-61
2021/12/01 08:01:53;;;;;;;3.50;2.00;;;10.30;72.50;;;;;;5070710;28;20025;-59
2021/12/01 08:04:19;;;;;;;2.40;1.23;;;10.40;72.20;;;;;;5071448;28;20036;-62
2021/12/01 08:06:45;;;;;;;4.40;1.50;;;10.40;72.10;;;;;;5072989;28;20480;-61
2021/12/01 08:09:11;;;;;;;2.38;1.27;;;10.50;71.80;;;;;;5072063;28;20025;-62
2021/12/01 08:11:38;;;;;;;5.22;1.33;;;10.50;71.60;;;;;;5071597;28;20574;-61
2021/12/01 08:14:06;;;;;;;4.40;1.30;;;10.60;71.00;;;;;;5073432;28;20089;-61
2021/12/01 08:16:33;;;;;;;3.17;1.55;;;10.60;70.90;;;;;;5070299;28;20021;-66
2021/12/01 08:18:59;;;;;;;2.95;1.50;;;10.60;70.80;;;;;;5072874;28;20028;-66
2021/12/01 08:21:25;;;;;;;2.47;0.98;;;10.70;70.50;;;;;;5069947;28;20499;-66
2021/12/01 08:23:52;;;;;;;3.80;1.25;;;10.80;70.40;;;;;;5069856;28;20051;-61
2021/12/01 08:26:19;;;;;;;3.08;1.42;;;10.80;70.30;;;;;;5068031;28;20044;-62
2021/12/01 08:28:47;;;;;;;2.80;1.30;;;10.80;70.10;;;;;;5070637;28;20520;-64
2021/12/01 08:31:15;;;;;;;2.67;1.25;;;10.90;70.00;;;;;;5072252;28;20036;-60
2021/12/01 08:33:43;;;;;;;2.38;1.33;;;11.00;70.00;;;;;;5068655;28;20032;-64
2021/12/01 08:36:12;;;;;;;3.30;1.20;;;10.90;69.60;;;;;;5071499;28;20028;-66
2021/12/01 08:38:38;;;;;;;3.83;1.60;;;11.00;69.10;;;;;;5069258;28;20103;-62
2021/12/01 08:41:06;;;;;;;2.55;1.40;;;11.00;69.20;;;;;;5072257;28;20060;-60
2021/12/01 08:43:33;;;;;;;4.03;1.75;;;11.00;69.30;;;;;;5069296;28;20039;-65
2021/12/01 08:46:00;;;;;;;4.10;1.38;;;11.10;69.40;;;;;;5070750;28;20039;-65
2021/12/01 08:48:26;;;;;;;2.42;1.20;;;11.10;69.20;;;;;;5070642;28;20028;-52
2021/12/01 08:50:52;;;;;;;3.67;1.30;;;11.10;69.30;;;;;;5071200;28;20028;-66
2021/12/01 08:53:18;;;;;;;2.88;1.40;;;11.20;69.50;;;;;;5068263;28;20366;-64
2021/12/01 08:55:45;;;;;;;2.30;1.17;;;11.20;69.40;;;;;;5066967;28;20028;-59
2021/12/01 08:58:13;;;;;;;4.57;1.20;;;11.20;69.30;;;;;;5069158;28;20032;-54
2021/12/01 09:03:26;;;;;;;4.40;2.20;;;11.30;69.50;;;;;;5070143;28;20040;-56
2021/12/01 09:05:53;;;;;;;4.22;1.65;;;11.30;69.50;;;;;;5070354;28;20028;-63
2021/12/01 09:08:21;;;;;;;5.43;2.00;;;11.20;69.60;;;;;;5070171;28;20029;-63
2021/12/01 09:10:48;;;;;;;4.15;1.67;;;11.30;69.90;;;;;;5070194;28;20036;-62
2021/12/01 09:13:15;;;;;;;2.45;1.30;;;11.30;70.00;;;;;;5068925;28;20029;-60
2021/12/01 09:15:42;;;;;;;5.25;1.90;;;11.30;69.90;;;;;;5070708;28;20266;-61
2021/12/01 09:18:08;;;;;;;3.33;1.45;;;11.30;70.00;;;;;;5070718;28;20032;-60
2021/12/01 09:20:53;;;;;;;2.35;1.10;;;11.30;70.20;;;;;;5067454;28;20131;-60
2021/12/01 09:23:20;;;;;;;2.80;1.15;;;11.30;70.50;;;;;;5070342;28;20038;-62
2021/12/01 09:25:47;;;;;;;2.72;1.40;;;11.30;70.30;;;;;;5056668;28;20044;-60
2021/12/01 09:28:15;;;;;;;4.75;1.75;;;11.30;70.40;;;;;;5051585;28;20071;-60
2021/12/01 09:30:42;;;;;;;3.38;1.33;;;11.40;70.60;;;;;;5047870;28;20462;-61
2021/12/01 09:33:08;;;;;;;3.97;1.25;;;11.50;70.30;;;;;;5050025;28;20021;-64
2021/12/01 09:35:34;;;;;;;4.07;1.52;;;11.40;70.20;;;;;;5046750;28;20787;-61
2021/12/01 09:38:00;;;;;;;3.38;1.65;;;11.40;70.20;;;;;;5050551;28;20430;-65
2021/12/01 09:40:26;;;;;;;3.75;1.20;;;11.40;70.60;;;;;;5032797;28;20116;-60
2021/12/01 09:42:54;;;;;;;3.60;1.40;;;11.30;70.60;;;;;;5050311;28;20033;-61
2021/12/01 09:45:23;;;;;;;3.95;1.30;;;11.20;70.90;;;;;;5049524;28;20048;-66
2021/12/01 09:47:50;;;;;;;2.90;1.52;;;11.30;71.20;;;;;;5049779;28;20083;-55
2021/12/01 09:50:17;;;;;;;5.85;1.98;;;11.30;71.30;;;;;;5051057;28;20029;-60
2021/12/01 09:52:43;;;;;;;5.82;1.50;;;11.30;71.50;;;;;;5047549;28;20051;-61
2021/12/01 09:55:12;;;;;;;3.83;1.50;;;11.30;71.40;;;;;;5049961;28;20024;-63
2021/12/01 09:57:38;;;;;;;4.65;1.65;;;11.30;71.20;;;;;;5050130;28;20029;-68
2021/12/01 10:00:06;;;;;;;3.03;1.38;;;11.30;71.40;;;;;;5050941;28;20021;-62
2021/12/01 10:02:32;;;;;;;6.65;1.30;;;11.30;71.40;;;;;;5031678;28;20120;-59
2021/12/01 10:04:58;;;;;;;2.85;1.25;;;11.30;71.30;;;;;;5032765;28;20607;-57
2021/12/01 10:07:33;;;;;;;5.78;2.53;;;11.20;71.20;;;;;;5031373;28;20135;-61
2021/12/01 10:10:08;;;;;;;3.17;1.65;;;11.20;71.20;;;;;;5033382;28;20021;-57
2021/12/01 10:12:48;;;;;;;4.32;2.40;;;11.20;71.10;;;;;;5032631;28;20040;-59
2021/12/01 10:15:27;;;;;;;5.60;2.50;;;11.30;71.10;;;;;;5033060;28;20186;-58
2021/12/01 10:18:13;;;;;;;4.53;3.63;;;11.30;71.70;;;;;;5051346;28;20025;-61
2021/12/01 10:20:39;;;;;;;7.05;3.08;;;11.30;71.00;;;;;;5050755;28;20170;-59
2021/12/01 10:23:08;;;;;;;7.18;2.20;;;11.20;71.40;;;;;;5051190;28;20040;-62
2021/12/01 10:25:34;;;;;;;8.63;2.55;;;11.20;71.90;;;;;;5050309;28;20153;-63
2021/12/01 10:28:00;;;;;;;5.57;2.42;;;11.20;72.00;;;;;;5033378;28;20067;-62
2021/12/01 10:30:42;;;;;;;5.78;2.38;;;11.30;71.90;;;;;;5032513;28;20033;-64
2021/12/01 10:33:15;;;;;;;6.72;2.30;;;11.30;71.50;;;;;;5033053;28;20021;-64
2021/12/01 10:35:42;;;;;;;2.85;1.90;;;11.30;71.40;;;;;;5050572;28;20033;-67
2021/12/01 10:38:09;;;;;;;5.40;2.33;;;11.40;71.10;;;;;;5050962;28;20025;-59
2021/12/01 10:40:37;;;;;;;5.05;2.10;;;11.50;70.80;;;;;;5032756;28;20040;-62
2021/12/01 10:43:04;;;;;;;7.85;1.95;;;11.50;70.40;;;;;;5050993;28;20095;-61
2021/12/01 10:45:34;;;;;;;8.98;3.10;;;11.60;70.20;;;;;;5050440;28;20025;-63
2021/12/01 10:48:02;;;;;;;4.65;3.05;;;11.70;69.90;;;;;;5032138;28;20488;-63
2021/12/01 10:50:32;;;;;;;5.32;3.45;;;11.80;69.40;;;;;;5032167;28;20071;-61
2021/12/01 10:53:05;;;;;;;5.53;2.20;;;11.80;69.00;;;;;;5050406;28;20439;-62
2021/12/01 10:55:32;;;;;;;4.47;2.55;;;11.80;68.80;;;;;;5050508;28;20470;-60
2021/12/01 10:58:05;;;;;;;10.98;2.35;;;11.80;69.00;;;;;;5033031;28;20029;-63
2021/12/01 11:00:45;;;;;;;5.63;2.28;;;11.80;69.30;;;;;;5050006;28;20071;-54
2021/12/01 11:03:24;;;;;;;3.80;2.28;;;11.80;69.40;;;;;;5050703;28;20051;-53
2021/12/01 11:06:07;;;;;;;7.00;3.00;;;11.80;69.50;;;;;;5050550;28;20029;-58
2021/12/01 11:08:42;;;;;;;7.32;2.67;;;11.80;69.50;;;;;;5049814;28;20025;-62
2021/12/01 11:11:12;;;;;;;4.72;2.08;;;11.90;69.10;;;;;;5050133;28;20048;-65
2021/12/01 11:13:43;;;;;;;4.72;2.17;;;11.90;68.50;;;;;;5050531;28;20476;-61
2021/12/01 11:16:10;;;;;;;4.63;2.15;;;11.80;68.60;;;;;;5032546;28;20028;-63
2021/12/01 11:18:43;;;;;;;3.47;1.90;;;11.80;68.70;;;;;;5033134;28;20029;-63
2021/12/01 11:21:10;;;;;;;6.88;2.75;;;11.80;68.60;;;;;;5054252;28;20127;-65
2021/12/01 11:23:41;;;;;;;9.05;3.03;;;11.80;69.50;;;;;;5054208;28;20462;-60
2021/12/01 11:26:17;;;;;;;6.43;2.63;;;11.80;69.20;;;;;;5054598;28;20446;-59
2021/12/01 11:28:44;;;;;;;8.07;2.67;;;11.80;69.00;;;;;;5054170;28;20025;-64
2021/12/01 11:31:19;;;;;;;5.72;2.92;;;11.90;68.70;;;;;;5052740;28;20505;-66
2021/12/01 11:33:46;;;;;;;9.65;2.97;;;11.90;68.60;;;;;;5054457;28;20025;-60
2021/12/01 11:36:18;;;;;;;3.90;2.20;;;11.90;68.80;;;;;;5054116;28;20021;-60
2021/12/01 11:38:49;;;;;;;6.20;2.40;;;11.90;68.90;;;;;;5054415;28;20029;-60
2021/12/01 11:41:15;;;;;;;4.95;2.30;;;11.90;69.00;;;;;;5053567;28;20548;-58
2021/12/01 11:43:42;;;;;;;4.00;1.70;;;12.00;68.90;;;;;;5054360;28;20033;-61
2021/12/01 11:46:08;;;;;;;6.03;2.42;;;12.10;68.40;;;;;;5054395;28;20029;-57
2021/12/01 11:48:42;;;;;;;9.88;2.63;;;12.10;68.50;;;;;;5053999;28;20037;-57
2021/12/01 11:51:24;;;;;;;4.57;2.58;;;12.10;68.50;;;;;;5036547;28;20040;-63
2021/12/01 11:53:52;;;;;;;4.30;2.00;;;11.90;67.60;;;;;;5036553;28;20132;-62
2021/12/01 11:56:39;;;;;;;3.90;1.70;;;11.80;67.60;;;;;;5036023;28;20082;-61
2021/12/01 11:59:14;;;;;;;2.80;1.60;;;11.70;67.60;;;;;;5054683;28;20021;-62
2021/12/01 12:01:42;;;;;;;4.28;2.45;;;11.60;67.60;;;;;;5054533;28;20043;-59
2021/12/01 12:04:11;;;;;;;2.47;1.70;;;11.60;68.70;;;;;;5036660;28;20108;-59
2021/12/01 12:06:48;;;;;;;3.53;2.05;;;11.60;68.00;;;;;;5053800;28;20025;-61
2021/12/01 12:09:18;;;;;;;3.50;2.33;;;11.50;68.00;;;;;;5053712;28;20032;-56
2021/12/01 12:12:11;;;;;;;5.38;2.10;;;11.50;67.90;;;;;;5054062;28;20090;-59
2021/12/01 12:14:45;;;;;;;2.92;1.90;;;11.50;67.80;;;;;;5049708;28;20135;-57
2021/12/01 12:17:18;;;;;;;4.60;2.00;;;11.50;67.80;;;;;;5035498;28;20071;-55
2021/12/01 12:19:51;;;;;;;5.55;2.55;;;11.50;67.80;;;;;;5035381;28;20036;-58
2021/12/01 12:22:46;;;;;;;4.38;2.10;;;11.60;68.00;;;;;;5034664;28;20056;-57
2021/12/01 12:25:35;;;;;;;3.22;2.15;;;11.60;67.60;;;;;;5052791;28;20049;-62
2021/12/01 12:28:17;;;;;;;4.40;2.42;;;11.80;67.00;;;;;;5034910;28;20169;-60
2021/12/01 12:30:45;;;;;;;5.38;2.58;;;11.80;66.90;;;;;;5034028;28;20029;-55
2021/12/01 12:33:28;;;;;;;3.85;1.92;;;11.80;67.00;;;;;;5052764;28;20033;-54
2021/12/01 12:36:02;;;;;;;3.95;2.10;;;11.90;66.60;;;;;;5034982;28;20029;-60
2021/12/01 12:38:29;;;;;;;5.50;2.22;;;11.90;66.30;;;;;;5052941;28;20035;-53
2021/12/01 12:41:07;;;;;;;4.65;2.40;;;12.00;66.20;;;;;;5052057;28;20489;-52
2021/12/01 12:43:36;;;;;;;3.00;1.75;;;11.90;66.00;;;;;;5034641;28;20025;-58
2021/12/01 12:46:17;;;;;;;5.60;2.67;;;11.90;66.20;;;;;;5034813;28;20455;-61
2021/12/01 12:48:54;;;;;;;6.63;3.65;;;12.00;66.10;;;;;;5053154;28;20104;-54
2021/12/01 12:51:26;;;;;;;7.03;4.03;;;12.00;66.10;;;;;;5034853;28;20072;-57
2021/12/01 12:54:04;;;;;;;12.27;6.93;;;12.00;66.10;;;;;;5053155;28;20033;-58
2021/12/01 12:56:34;;;;;;;7.60;3.00;;;12.10;65.80;;;;;;5052162;28;20124;-54
2021/12/01 12:59:20;;;;;;;6.78;2.70;;;12.10;66.00;;;;;;5053158;28;20025;-56
2021/12/01 13:02:10;;;;;;;6.10;2.88;;;12.10;66.10;;;;;;5018018;28;20128;-51
2021/12/01 13:07:34;;;;;;;5.07;2.92;;;12.20;65.80;;;;;;5052509;28;20025;-59
2021/12/01 13:10:12;;;;;;;5.90;2.70;;;12.30;65.70;;;;;;5034573;28;20029;-60
2021/12/01 13:12:55;;;;;;;5.18;2.80;;;12.40;65.40;;;;;;5052021;28;20024;-59